createdAt,value
2017-03-17T00:01:01.508Z,32.42
2017-03-17T00:02:07.144Z,40.67
2017-03-17T00:03:12.634Z,29.88
2017-03-17T00:04:18.193Z,25.42
2017-03-17T00:05:24.537Z,26.92
2017-03-17T00:06:29.997Z,26.17
2017-03-17T00:07:35.671Z,26.63
2017-03-17T00:08:40.389Z,30.03
2017-03-17T00:09:45.951Z,27.62
2017-03-17T00:10:51.578Z,25.13
2017-03-17T00:11:57.061Z,29.98
2017-03-17T00:13:03.470Z,33.28
2017-03-17T00:14:09.185Z,27.35
2017-03-17T00:15:14.115Z,34.37
2017-03-17T00:16:18.825Z,29.92
2017-03-17T00:17:23.510Z,51.30
2017-03-17T00:18:30.946Z,116.68
2017-03-17T00:19:35.746Z,63.82
2017-03-17T00:20:41.301Z,78.67
2017-03-17T00:21:46.778Z,59.82
2017-03-17T00:22:51.673Z,75.45
2017-03-17T00:23:57.245Z,45.28
2017-03-17T00:25:03.554Z,60.37
2017-03-17T00:26:08.238Z,61.13
2017-03-17T00:27:13.705Z,67.28
2017-03-17T00:28:19.512Z,101.72
2017-03-17T00:29:25.462Z,102.53
2017-03-17T00:30:30.701Z,129.72
2017-03-17T00:31:36.277Z,74.05
2017-03-17T00:32:41.725Z,72.30
2017-03-17T00:33:47.370Z,108.17
2017-03-17T00:34:52.933Z,123.65
2017-03-17T00:35:59.113Z,86.73
2017-03-17T00:37:08.618Z,67.48
2017-03-17T00:38:14.221Z,40.22
2017-03-17T00:39:18.981Z,27.35
2017-03-17T00:40:24.599Z,31.32
2017-03-17T00:41:30.918Z,26.12
2017-03-17T00:42:35.582Z,25.37
2017-03-17T00:43:41.054Z,24.70
2017-03-17T00:44:53.190Z,27.48
2017-03-17T00:45:59.134Z,26.28
2017-03-17T00:47:03.909Z,23.58
2017-03-17T00:48:09.422Z,24.37
2017-03-17T00:49:14.981Z,24.57
2017-03-17T00:50:20.595Z,23.98
2017-03-17T00:51:26.974Z,22.42
2017-03-17T00:52:31.794Z,23.92
2017-03-17T00:53:37.277Z,21.90
2017-03-17T00:54:43.727Z,23.70
2017-03-17T00:55:49.198Z,24.80
2017-03-17T00:56:54.606Z,28.33
2017-03-17T00:58:00.534Z,25.83
2017-03-17T00:59:05.356Z,22.72
2017-03-17T01:00:11.758Z,26.70
2017-03-17T01:01:16.549Z,32.38
2017-03-17T01:02:22.881Z,29.70
2017-03-17T01:03:27.631Z,26.90
2017-03-17T01:04:33.150Z,26.35
2017-03-17T01:05:39.442Z,25.98
2017-03-17T01:06:44.437Z,26.43
2017-03-17T01:07:49.919Z,30.08
2017-03-17T01:08:54.622Z,28.18
2017-03-17T01:10:00.210Z,25.88
2017-03-17T01:11:06.406Z,25.07
2017-03-17T01:12:11.298Z,26.02
2017-03-17T01:13:16.039Z,26.30
2017-03-17T01:14:21.522Z,25.85
2017-03-17T01:15:26.990Z,33.63
2017-03-17T01:16:33.170Z,41.35
2017-03-17T01:17:38.642Z,44.20
2017-03-17T01:18:43.490Z,39.00
2017-03-17T01:19:49.021Z,38.32
2017-03-17T01:20:54.466Z,41.52
2017-03-17T01:21:59.961Z,45.22
2017-03-17T01:23:05.544Z,44.35
2017-03-17T01:24:10.318Z,37.72
2017-03-17T01:25:16.505Z,42.50
2017-03-17T01:26:21.314Z,37.05
2017-03-17T01:27:27.731Z,34.02
2017-03-17T01:28:33.323Z,32.18
2017-03-17T01:29:38.845Z,36.10
2017-03-17T01:30:43.818Z,28.00
2017-03-17T01:31:49.223Z,30.75
2017-03-17T01:32:53.882Z,42.37
2017-03-17T01:33:59.459Z,39.60
2017-03-17T01:35:04.990Z,28.47
2017-03-17T01:36:11.290Z,29.40
2017-03-17T01:37:16.166Z,29.03
2017-03-17T01:38:22.320Z,28.50
2017-03-17T01:39:28.022Z,33.80
2017-03-17T01:40:33.490Z,33.15
2017-03-17T01:41:39.057Z,36.12
2017-03-17T01:42:43.929Z,33.37
2017-03-17T01:43:49.522Z,31.07
2017-03-17T01:44:54.911Z,28.82
2017-03-17T01:46:00.402Z,31.60
2017-03-17T01:47:06.022Z,27.30
2017-03-17T01:48:11.709Z,28.75
2017-03-17T01:49:17.129Z,28.67
2017-03-17T01:50:22.837Z,26.63
2017-03-17T01:51:28.957Z,29.90
2017-03-17T01:52:34.546Z,29.27
2017-03-17T01:53:39.232Z,26.82
2017-03-17T01:54:44.798Z,24.25
2017-03-17T01:55:49.530Z,28.13
2017-03-17T01:56:55.850Z,25.80
2017-03-17T01:58:00.574Z,28.17
2017-03-17T01:59:05.246Z,25.83
2017-03-17T02:00:10.823Z,30.88
2017-03-17T02:01:16.453Z,27.17
2017-03-17T02:02:22.094Z,30.27
2017-03-17T02:03:27.506Z,23.37
2017-03-17T02:04:33.722Z,25.75
2017-03-17T02:05:39.291Z,25.65
2017-03-17T02:06:43.982Z,23.72
2017-03-17T02:07:50.464Z,27.22
2017-03-17T02:08:56.062Z,23.65
2017-03-17T02:10:00.826Z,27.05
2017-03-17T02:11:07.178Z,27.02
2017-03-17T02:12:12.365Z,27.03
2017-03-17T02:13:17.390Z,26.07
2017-03-17T02:14:22.783Z,26.18
2017-03-17T02:15:29.034Z,23.77
2017-03-17T02:16:33.869Z,25.68
2017-03-17T02:17:39.371Z,27.32
2017-03-17T02:18:44.931Z,23.20
2017-03-17T02:19:50.343Z,28.35
2017-03-17T02:20:55.870Z,26.82
2017-03-17T02:22:01.311Z,26.03
2017-03-17T02:23:13.202Z,30.27
2017-03-17T02:24:18.382Z,27.02
2017-03-17T02:25:24.486Z,26.60
2017-03-17T02:26:29.394Z,30.10
2017-03-17T02:27:34.785Z,24.43
2017-03-17T02:28:41.258Z,25.17
2017-03-17T02:29:46.126Z,28.00
2017-03-17T02:30:52.410Z,25.30
2017-03-17T02:31:57.210Z,25.47
2017-03-17T02:33:02.741Z,29.03
2017-03-17T02:34:08.313Z,24.42
2017-03-17T02:35:13.834Z,24.35
2017-03-17T02:36:19.426Z,26.27
2017-03-17T02:37:24.829Z,25.05
2017-03-17T02:38:30.259Z,27.53
2017-03-17T02:39:36.637Z,30.32
2017-03-17T02:40:41.487Z,29.75
2017-03-17T02:41:46.212Z,24.62
2017-03-17T02:42:52.578Z,28.42
2017-03-17T02:43:57.443Z,28.22
2017-03-17T02:45:02.981Z,29.23
2017-03-17T02:46:09.338Z,27.80
2017-03-17T02:47:14.102Z,23.55
2017-03-17T02:48:19.737Z,25.67
2017-03-17T02:49:25.343Z,22.83
2017-03-17T02:50:30.862Z,27.57
2017-03-17T02:51:36.398Z,27.35
2017-03-17T02:52:41.938Z,26.17
2017-03-17T02:53:47.412Z,25.92
2017-03-17T02:54:53.146Z,27.40
2017-03-17T02:55:59.519Z,26.22
2017-03-17T02:57:04.490Z,27.28
2017-03-17T02:58:09.913Z,26.20
2017-03-17T02:59:15.391Z,25.97
2017-03-17T03:00:20.090Z,24.95
2017-03-17T03:01:26.646Z,29.13
2017-03-17T03:02:32.158Z,29.27
2017-03-17T03:03:37.663Z,30.43
2017-03-17T03:04:43.154Z,26.67
2017-03-17T03:05:48.629Z,27.80
2017-03-17T03:06:54.782Z,26.57
2017-03-17T03:08:00.528Z,26.00
2017-03-17T03:09:05.294Z,29.93
2017-03-17T03:10:10.878Z,27.05
2017-03-17T03:11:16.429Z,29.12
2017-03-17T03:12:21.993Z,27.95
2017-03-17T03:13:26.813Z,27.42
2017-03-17T03:14:32.266Z,29.17
2017-03-17T03:15:37.757Z,26.70
2017-03-17T03:16:43.973Z,28.38
2017-03-17T03:17:48.670Z,33.20
2017-03-17T03:18:54.293Z,30.73
2017-03-17T03:19:59.654Z,32.65
2017-03-17T03:21:05.985Z,29.85
2017-03-17T03:22:10.742Z,29.25
2017-03-17T03:23:16.994Z,31.60
2017-03-17T03:24:22.023Z,30.75
2017-03-17T03:25:33.974Z,32.80
2017-03-17T03:26:39.521Z,26.10
2017-03-17T03:27:50.356Z,24.38
2017-03-17T03:29:00.380Z,28.70
2017-03-17T03:30:05.878Z,24.95
2017-03-17T03:31:11.261Z,27.35
2017-03-17T03:32:17.549Z,25.43
2017-03-17T03:33:23.036Z,29.20
2017-03-17T03:34:28.694Z,28.68
2017-03-17T03:35:33.498Z,25.68
2017-03-17T03:36:38.970Z,31.38
2017-03-17T03:37:44.391Z,25.68
2017-03-17T03:38:49.995Z,30.00
2017-03-17T03:39:55.562Z,26.35
2017-03-17T03:41:01.819Z,28.17
2017-03-17T03:42:07.430Z,31.73
2017-03-17T03:43:13.706Z,28.37
2017-03-17T03:44:18.483Z,27.70
2017-03-17T03:45:24.130Z,26.98
2017-03-17T03:46:29.840Z,27.80
2017-03-17T03:47:35.386Z,25.07
2017-03-17T03:48:40.475Z,27.47
2017-03-17T03:49:45.865Z,29.32
2017-03-17T03:50:51.382Z,29.37
2017-03-17T03:51:57.642Z,29.27
2017-03-17T03:53:03.103Z,28.78
2017-03-17T03:54:08.598Z,30.33
2017-03-17T03:55:13.587Z,28.77
2017-03-17T03:56:19.078Z,28.80
2017-03-17T03:57:23.781Z,29.92
2017-03-17T03:58:29.165Z,29.05
2017-03-17T03:59:34.705Z,25.48
2017-03-17T04:00:40.722Z,23.52
2017-03-17T04:01:45.457Z,29.73
2017-03-17T04:02:50.461Z,27.52
2017-03-17T04:03:55.926Z,29.20
2017-03-17T04:05:01.541Z,25.33
2017-03-17T04:06:06.192Z,26.92
2017-03-17T04:07:12.558Z,28.40
2017-03-17T04:08:17.499Z,31.75
2017-03-17T04:09:23.054Z,29.35
2017-03-17T04:10:28.684Z,26.65
2017-03-17T04:11:34.294Z,27.18
2017-03-17T04:12:39.798Z,30.20
2017-03-17T04:13:45.240Z,27.57
2017-03-17T04:14:50.690Z,30.18
2017-03-17T04:15:56.178Z,30.93
2017-03-17T04:17:01.648Z,29.17
2017-03-17T04:18:07.110Z,30.53
2017-03-17T04:19:15.419Z,28.68
2017-03-17T04:20:20.239Z,27.15
2017-03-17T04:21:25.678Z,26.80
2017-03-17T04:22:31.922Z,28.93
2017-03-17T04:23:36.771Z,30.65
2017-03-17T04:24:42.373Z,31.72
2017-03-17T04:25:47.837Z,30.47
2017-03-17T04:26:52.518Z,31.48
2017-03-17T04:27:58.050Z,26.63
2017-03-17T04:29:03.631Z,29.47
2017-03-17T04:30:09.993Z,33.75
2017-03-17T04:31:15.506Z,27.87
2017-03-17T04:32:20.257Z,29.32
2017-03-17T04:33:25.749Z,32.57
2017-03-17T04:34:31.215Z,26.23
2017-03-17T04:35:35.882Z,26.38
2017-03-17T04:36:41.487Z,25.00
2017-03-17T04:37:46.914Z,29.68
2017-03-17T04:38:52.526Z,27.25
2017-03-17T04:39:58.750Z,32.03
2017-03-17T04:41:03.591Z,27.88
2017-03-17T04:42:09.030Z,31.67
2017-03-17T04:43:14.522Z,27.82
2017-03-17T04:44:20.042Z,29.73
2017-03-17T04:45:25.682Z,29.93
2017-03-17T04:46:32.961Z,32.32
2017-03-17T04:47:37.868Z,25.92
2017-03-17T04:48:48.211Z,29.75
2017-03-17T04:49:53.577Z,35.05
2017-03-17T04:50:59.846Z,30.05
2017-03-17T04:52:04.602Z,31.83
2017-03-17T04:53:10.878Z,28.80
2017-03-17T04:54:16.510Z,27.92
2017-03-17T04:55:22.086Z,29.78
2017-03-17T04:56:27.646Z,30.92
2017-03-17T04:57:33.350Z,36.65
2017-03-17T04:58:38.221Z,28.93
2017-03-17T04:59:43.702Z,33.37
2017-03-17T05:00:49.271Z,30.30
2017-03-17T05:01:54.818Z,29.35
2017-03-17T05:03:00.510Z,33.17
2017-03-17T05:04:06.853Z,33.08
2017-03-17T05:05:11.654Z,32.93
2017-03-17T05:06:17.993Z,32.27
2017-03-17T05:07:23.654Z,30.83
2017-03-17T05:08:29.246Z,29.15
2017-03-17T05:09:34.646Z,31.80
2017-03-17T05:10:39.753Z,30.23
2017-03-17T05:11:45.329Z,29.58
2017-03-17T05:12:52.165Z,25.12
2017-03-17T05:13:57.725Z,31.45
2017-03-17T05:15:02.828Z,28.20
2017-03-17T05:16:08.449Z,33.53
2017-03-17T05:17:14.002Z,28.13
2017-03-17T05:18:19.422Z,30.48
2017-03-17T05:19:26.065Z,33.60
2017-03-17T05:20:31.657Z,33.18
2017-03-17T05:21:36.408Z,32.12
2017-03-17T05:22:41.930Z,30.22
2017-03-17T05:23:47.492Z,31.38
2017-03-17T05:25:10.485Z,33.03
2017-03-17T05:26:17.576Z,29.95
2017-03-17T05:27:23.094Z,29.18
2017-03-17T05:28:43.130Z,31.70
2017-03-17T05:29:48.906Z,31.48
2017-03-17T05:30:54.505Z,31.55
2017-03-17T05:32:00.146Z,27.33
2017-03-17T05:33:06.637Z,31.27
2017-03-17T05:34:12.226Z,29.58
2017-03-17T05:35:17.626Z,33.85
2017-03-17T05:36:23.211Z,30.13
2017-03-17T05:37:29.383Z,34.65
2017-03-17T05:38:35.185Z,28.57
2017-03-17T05:39:40.982Z,32.48
2017-03-17T05:40:46.303Z,29.83
2017-03-17T05:41:51.862Z,35.77
2017-03-17T05:42:57.446Z,26.97
2017-03-17T05:44:03.599Z,30.18
2017-03-17T05:45:08.418Z,29.73
2017-03-17T05:46:13.946Z,31.68
2017-03-17T05:47:20.181Z,31.50
2017-03-17T05:48:24.951Z,29.53
2017-03-17T05:49:30.578Z,33.22
2017-03-17T05:50:36.130Z,30.43
2017-03-17T05:51:41.650Z,31.52
2017-03-17T05:52:47.188Z,35.18
2017-03-17T05:53:52.963Z,29.28
2017-03-17T05:54:58.203Z,31.87
2017-03-17T05:56:03.086Z,29.50
2017-03-17T05:57:08.494Z,30.45
2017-03-17T05:58:14.150Z,27.27
2017-03-17T05:59:20.463Z,33.67
2017-03-17T06:00:26.849Z,30.88
2017-03-17T06:01:31.725Z,29.02
2017-03-17T06:02:37.255Z,30.05
2017-03-17T06:03:47.583Z,29.40
2017-03-17T06:04:52.351Z,32.38
2017-03-17T06:05:57.082Z,30.20
2017-03-17T06:07:02.654Z,29.13
2017-03-17T06:08:08.222Z,30.53
2017-03-17T06:09:13.826Z,29.30
2017-03-17T06:10:19.250Z,28.95
2017-03-17T06:11:24.726Z,30.82
2017-03-17T06:12:30.190Z,30.52
2017-03-17T06:13:36.455Z,29.47
2017-03-17T06:14:41.265Z,27.97
2017-03-17T06:15:46.909Z,33.33
2017-03-17T06:16:53.082Z,27.48
2017-03-17T06:17:58.458Z,30.93
2017-03-17T06:19:03.317Z,28.78
2017-03-17T06:20:09.142Z,27.92
2017-03-17T06:21:14.301Z,26.65
2017-03-17T06:22:19.869Z,29.10
2017-03-17T06:23:26.118Z,29.13
2017-03-17T06:24:31.019Z,29.75
2017-03-17T06:25:36.432Z,26.75
2017-03-17T06:26:42.664Z,32.12
2017-03-17T06:27:49.093Z,32.60
2017-03-17T06:28:54.265Z,30.77
2017-03-17T06:30:00.529Z,31.65
2017-03-17T06:31:06.233Z,30.93
2017-03-17T06:32:11.829Z,32.92
2017-03-17T06:34:47.190Z,32.95
2017-03-17T06:35:53.170Z,30.83
2017-03-17T06:36:57.995Z,31.52
2017-03-17T06:38:04.231Z,30.47
2017-03-17T06:39:09.987Z,30.80
2017-03-17T06:40:14.793Z,29.98
2017-03-17T06:41:20.966Z,34.42
2017-03-17T06:42:25.681Z,30.00
2017-03-17T06:43:31.206Z,27.55
2017-03-17T06:44:37.489Z,36.05
2017-03-17T06:45:42.297Z,31.65
2017-03-17T06:46:47.783Z,30.65
2017-03-17T06:47:54.094Z,31.28
2017-03-17T06:48:59.864Z,42.93
2017-03-17T06:50:05.417Z,32.85
2017-03-17T06:51:11.010Z,28.85
2017-03-17T06:52:17.413Z,31.10
2017-03-17T06:53:22.998Z,29.92
2017-03-17T06:54:27.799Z,29.90
2017-03-17T06:55:34.038Z,32.05
2017-03-17T06:56:39.073Z,32.58
2017-03-17T06:57:45.446Z,30.33
2017-03-17T06:58:50.581Z,34.50
2017-03-17T06:59:55.624Z,34.13
2017-03-17T07:01:03.462Z,36.95
2017-03-17T07:02:08.659Z,33.33
2017-03-17T07:03:14.112Z,31.47
2017-03-17T07:04:21.762Z,29.37
2017-03-17T07:05:28.158Z,34.27
2017-03-17T07:06:32.990Z,31.90
2017-03-17T07:07:39.195Z,29.63
2017-03-17T07:08:44.383Z,31.48
2017-03-17T07:09:50.398Z,32.42
2017-03-17T07:10:55.262Z,28.22
2017-03-17T07:12:00.869Z,31.67
2017-03-17T07:13:11.377Z,30.30
2017-03-17T07:14:16.983Z,29.95
2017-03-17T07:15:22.513Z,30.30
2017-03-17T07:16:28.029Z,32.10
2017-03-17T07:17:33.506Z,31.35
2017-03-17T07:18:38.987Z,30.17
2017-03-17T07:19:43.714Z,31.45
2017-03-17T07:20:49.937Z,31.37
2017-03-17T07:21:55.504Z,28.77
2017-03-17T07:23:00.259Z,26.22
2017-03-17T07:24:04.970Z,25.60
2017-03-17T07:25:10.449Z,29.53
2017-03-17T07:26:15.990Z,29.37
2017-03-17T07:27:22.228Z,31.18
2017-03-17T07:28:27.018Z,32.52
2017-03-17T07:29:33.243Z,34.62
2017-03-17T07:30:38.200Z,30.22
2017-03-17T07:31:43.926Z,32.07
2017-03-17T07:32:49.422Z,28.37
2017-03-17T07:33:54.158Z,33.83
2017-03-17T07:34:59.794Z,29.57
2017-03-17T07:36:05.323Z,31.00
2017-03-17T07:37:10.091Z,35.87
2017-03-17T07:38:15.686Z,27.87
2017-03-17T07:39:21.146Z,30.70
2017-03-17T07:40:26.581Z,30.83
2017-03-17T07:41:31.381Z,27.35
2017-03-17T07:42:36.089Z,32.80
2017-03-17T07:43:41.522Z,29.97
2017-03-17T07:44:47.798Z,29.97
2017-03-17T07:45:52.698Z,27.92
2017-03-17T07:46:58.257Z,32.42
2017-03-17T07:48:04.426Z,33.02
2017-03-17T07:49:09.969Z,28.55
2017-03-17T07:50:14.878Z,32.83
2017-03-17T07:51:21.145Z,29.77
2017-03-17T07:52:26.034Z,33.58
2017-03-17T07:53:32.417Z,37.35
2017-03-17T07:54:37.283Z,39.48
2017-03-17T07:55:42.745Z,27.28
2017-03-17T07:56:49.230Z,30.62
2017-03-17T07:57:54.687Z,35.38
2017-03-17T07:59:04.655Z,41.33
2017-03-17T08:00:09.629Z,44.58
2017-03-17T08:01:15.334Z,40.23
2017-03-17T08:02:24.274Z,35.98
2017-03-17T08:03:29.601Z,31.53
2017-03-17T08:04:34.402Z,30.55
2017-03-17T08:05:40.521Z,34.32
2017-03-17T08:06:45.442Z,33.85
2017-03-17T08:07:50.867Z,29.97
2017-03-17T08:08:56.463Z,33.25
2017-03-17T08:10:01.999Z,32.37
2017-03-17T08:11:07.546Z,32.93
2017-03-17T08:12:13.862Z,34.87
2017-03-17T08:13:18.685Z,28.85
2017-03-17T08:14:25.018Z,32.40
2017-03-17T08:15:30.458Z,26.75
2017-03-17T08:16:35.322Z,28.42
2017-03-17T08:17:41.639Z,28.60
2017-03-17T08:18:47.203Z,28.40
2017-03-17T08:19:52.042Z,27.85
2017-03-17T08:20:57.674Z,30.97
2017-03-17T08:22:03.158Z,29.78
2017-03-17T08:23:08.773Z,27.43
2017-03-17T08:24:15.163Z,35.82
2017-03-17T08:25:20.018Z,34.63
2017-03-17T08:26:25.513Z,29.02
2017-03-17T08:27:30.257Z,31.48
2017-03-17T08:28:35.770Z,31.25
2017-03-17T08:29:41.370Z,29.50
2017-03-17T08:30:46.939Z,28.90
2017-03-17T08:31:53.366Z,30.48
2017-03-17T08:32:58.883Z,29.65
2017-03-17T08:34:03.566Z,28.30
2017-03-17T08:35:09.046Z,31.23
2017-03-17T08:36:15.381Z,29.75
2017-03-17T08:37:20.285Z,29.23
2017-03-17T08:38:25.811Z,30.72
2017-03-17T08:39:31.161Z,33.83
2017-03-17T08:40:35.817Z,33.18
2017-03-17T08:41:42.129Z,33.12
2017-03-17T08:42:46.953Z,28.32
2017-03-17T08:43:52.561Z,32.63
2017-03-17T08:44:58.773Z,31.73
2017-03-17T08:46:03.638Z,33.32
2017-03-17T08:47:09.902Z,29.50
2017-03-17T08:48:14.710Z,35.78
2017-03-17T08:49:20.274Z,30.47
2017-03-17T08:50:25.869Z,32.85
2017-03-17T08:51:32.256Z,33.10
2017-03-17T08:52:37.253Z,34.55
2017-03-17T08:53:43.563Z,28.42
2017-03-17T08:54:49.129Z,29.23
2017-03-17T08:55:53.801Z,30.88
2017-03-17T08:56:59.442Z,30.23
2017-03-17T08:58:05.774Z,28.43
2017-03-17T08:59:10.837Z,33.83
2017-03-17T09:00:16.201Z,32.93
2017-03-17T09:01:21.838Z,35.25
2017-03-17T09:02:28.083Z,34.65
2017-03-17T09:03:33.618Z,29.78
2017-03-17T09:04:39.218Z,28.98
2017-03-17T09:05:45.153Z,31.57
2017-03-17T09:06:50.423Z,29.27
2017-03-17T09:07:55.991Z,33.58
2017-03-17T09:09:00.911Z,31.28
2017-03-17T09:10:06.449Z,35.30
2017-03-17T09:11:11.149Z,34.03
2017-03-17T09:12:16.727Z,32.42
2017-03-17T09:13:23.054Z,32.77
2017-03-17T09:14:27.869Z,30.52
2017-03-17T09:15:33.453Z,29.05
2017-03-17T09:16:39.009Z,30.43
2017-03-17T09:17:44.639Z,32.78
2017-03-17T09:18:50.877Z,31.35
2017-03-17T09:19:57.014Z,34.02
2017-03-17T09:21:03.838Z,30.95
2017-03-17T09:22:09.395Z,32.72
2017-03-17T09:23:14.126Z,29.58
2017-03-17T09:24:19.674Z,31.58
2017-03-17T09:25:25.266Z,39.68
2017-03-17T09:26:30.757Z,46.25
2017-03-17T09:27:36.306Z,41.12
2017-03-17T09:28:41.966Z,40.77
2017-03-17T09:29:48.073Z,36.98
2017-03-17T09:30:52.881Z,38.18
2017-03-17T09:31:59.278Z,38.32
2017-03-17T09:33:04.000Z,41.60
2017-03-17T09:34:09.379Z,37.22
2017-03-17T09:35:15.678Z,36.80
2017-03-17T09:36:20.616Z,41.57
2017-03-17T09:37:26.186Z,38.08
2017-03-17T09:38:32.338Z,38.00
2017-03-17T09:39:37.894Z,39.02
2017-03-17T09:40:42.640Z,37.48
2017-03-17T09:41:47.373Z,36.73
2017-03-17T09:42:53.790Z,39.97
2017-03-17T09:43:59.241Z,40.35
2017-03-17T09:45:04.890Z,37.70
2017-03-17T09:46:09.711Z,38.03
2017-03-17T09:47:15.274Z,34.63
2017-03-17T09:48:22.550Z,37.77
2017-03-17T09:49:27.325Z,34.08
2017-03-17T09:50:32.706Z,33.42
2017-03-17T09:51:38.265Z,35.88
2017-03-17T09:52:43.853Z,35.05
2017-03-17T09:53:50.013Z,32.27
2017-03-17T09:54:54.889Z,35.07
2017-03-17T09:56:00.382Z,37.92
2017-03-17T09:57:05.169Z,35.60
2017-03-17T09:58:10.598Z,34.70
2017-03-17T09:59:16.151Z,38.65
2017-03-17T10:00:21.002Z,34.60
2017-03-17T10:01:26.390Z,35.72
2017-03-17T10:02:32.618Z,34.60
2017-03-17T10:03:37.410Z,35.55
2017-03-17T10:04:42.990Z,35.62
2017-03-17T10:05:48.870Z,40.38
2017-03-17T10:06:54.112Z,37.20
2017-03-17T10:08:00.461Z,33.92
2017-03-17T10:09:05.721Z,42.47
2017-03-17T10:10:11.437Z,41.52
2017-03-17T10:11:16.406Z,43.07
2017-03-17T10:12:21.969Z,45.27
2017-03-17T10:13:28.342Z,52.40
2017-03-17T10:14:33.063Z,41.80
2017-03-17T10:15:39.386Z,40.53
2017-03-17T10:16:45.326Z,43.98
2017-03-17T10:17:51.130Z,42.40
2017-03-17T10:18:57.394Z,46.47
2017-03-17T10:20:03.769Z,48.18
2017-03-17T10:21:09.201Z,44.18
2017-03-17T10:22:14.143Z,45.15
2017-03-17T10:23:19.606Z,44.95
2017-03-17T10:24:24.277Z,46.32
2017-03-17T10:25:29.865Z,45.17
2017-03-17T10:26:36.225Z,46.80
2017-03-17T10:27:41.808Z,54.25
2017-03-17T10:28:48.268Z,54.68
2017-03-17T10:29:53.165Z,57.25
2017-03-17T10:30:59.345Z,58.57
2017-03-17T10:32:05.118Z,56.90
2017-03-17T10:33:10.641Z,55.43
2017-03-17T10:34:15.646Z,52.68
2017-03-17T10:35:22.066Z,58.85
2017-03-17T10:36:26.903Z,53.23
2017-03-17T10:37:32.901Z,58.85
2017-03-17T10:38:37.878Z,54.38
2017-03-17T10:39:43.458Z,51.00
2017-03-17T10:40:49.045Z,55.77
2017-03-17T10:41:54.629Z,50.62
2017-03-17T10:43:01.042Z,55.47
2017-03-17T10:44:07.434Z,56.07
2017-03-17T10:45:12.142Z,53.32
2017-03-17T10:46:18.470Z,53.60
2017-03-17T10:47:24.202Z,50.73
2017-03-17T10:48:30.690Z,61.18
2017-03-17T10:49:36.226Z,51.95
2017-03-17T10:50:41.082Z,55.85
2017-03-17T10:51:45.777Z,56.75
2017-03-17T10:52:51.366Z,56.53
2017-03-17T10:53:56.847Z,56.40
2017-03-17T10:55:02.286Z,54.32
2017-03-17T10:56:07.229Z,55.65
2017-03-17T10:57:12.953Z,53.45
2017-03-17T10:58:18.575Z,57.30
2017-03-17T10:59:24.922Z,57.65
2017-03-17T11:00:29.927Z,56.55
2017-03-17T11:01:35.410Z,57.68
2017-03-17T11:02:41.698Z,56.15
2017-03-17T11:03:46.511Z,57.23
2017-03-17T11:04:52.082Z,61.93
2017-03-17T11:05:56.870Z,57.80
2017-03-17T11:07:03.222Z,53.53
2017-03-17T11:08:08.114Z,57.85
2017-03-17T11:09:13.522Z,66.05
2017-03-17T11:10:19.119Z,52.97
2017-03-17T11:11:24.618Z,55.28
2017-03-17T11:12:29.270Z,63.43
2017-03-17T11:13:35.618Z,55.65
2017-03-17T11:14:41.150Z,57.13
2017-03-17T11:15:46.394Z,55.45
2017-03-17T11:16:51.601Z,57.67
2017-03-17T11:17:57.995Z,55.93
2017-03-17T11:19:02.826Z,55.13
2017-03-17T11:20:08.369Z,55.10
2017-03-17T11:21:15.790Z,55.00
2017-03-17T11:22:21.024Z,54.98
2017-03-17T11:23:27.138Z,51.75
2017-03-17T11:24:32.661Z,54.90
2017-03-17T11:25:38.223Z,54.12
2017-03-17T11:26:43.086Z,51.68
2017-03-17T11:27:48.685Z,55.78
2017-03-17T11:28:54.226Z,51.60
2017-03-17T11:30:00.473Z,53.88
2017-03-17T11:31:05.378Z,60.00
2017-03-17T11:32:11.194Z,55.48
2017-03-17T11:33:17.747Z,53.52
2017-03-17T11:34:23.561Z,57.42
2017-03-17T11:35:29.395Z,51.28
2017-03-17T11:36:34.942Z,54.82
2017-03-17T11:37:40.491Z,57.53
2017-03-17T11:38:45.482Z,58.82
2017-03-17T11:39:50.991Z,59.72
2017-03-17T11:40:56.449Z,57.05
2017-03-17T11:42:03.606Z,59.50
2017-03-17T11:43:08.691Z,59.75
2017-03-17T11:44:13.371Z,56.62
2017-03-17T11:45:18.931Z,55.65
2017-03-17T11:46:24.569Z,59.00
2017-03-17T11:47:29.237Z,57.90
2017-03-17T11:48:36.614Z,52.75
2017-03-17T11:49:41.450Z,56.17
2017-03-17T11:50:47.886Z,56.28
2017-03-17T11:51:54.170Z,52.78
2017-03-17T11:52:58.822Z,57.60
2017-03-17T11:54:05.254Z,53.53
2017-03-17T11:55:09.950Z,52.33
2017-03-17T11:56:16.614Z,53.82
2017-03-17T11:57:23.001Z,53.03
2017-03-17T11:58:28.706Z,52.37
2017-03-17T11:59:34.386Z,54.23
2017-03-17T12:00:39.709Z,53.45
2017-03-17T12:01:46.593Z,51.08
2017-03-17T12:02:52.083Z,55.85
2017-03-17T12:03:57.759Z,56.00
2017-03-17T12:05:02.502Z,59.92
2017-03-17T12:06:09.470Z,56.88
2017-03-17T12:07:16.094Z,53.97
2017-03-17T12:08:22.106Z,62.48
2017-03-17T12:09:27.234Z,56.12
2017-03-17T12:10:34.051Z,62.35
2017-03-17T12:11:39.993Z,65.70
2017-03-17T12:12:44.766Z,64.33
2017-03-17T12:13:50.886Z,59.17
2017-03-17T12:14:55.970Z,56.62
2017-03-17T12:16:02.482Z,63.10
2017-03-17T12:17:09.361Z,60.20
2017-03-17T12:18:15.406Z,59.27
2017-03-17T12:19:20.175Z,51.98
2017-03-17T12:20:24.850Z,55.87
2017-03-17T12:21:31.190Z,54.67
2017-03-17T12:22:36.766Z,52.88
2017-03-17T12:23:41.610Z,54.78
2017-03-17T12:24:47.719Z,53.25
2017-03-17T12:25:52.442Z,46.58
2017-03-17T12:26:59.217Z,46.35
2017-03-17T12:28:05.391Z,46.33
2017-03-17T12:29:11.946Z,41.20
2017-03-17T12:30:16.778Z,47.25
2017-03-17T12:31:22.362Z,45.60
2017-03-17T12:32:27.930Z,40.70
2017-03-17T12:33:34.771Z,40.07
2017-03-17T12:34:40.103Z,35.60
2017-03-17T12:35:45.228Z,40.80
2017-03-17T12:36:51.130Z,43.17
2017-03-17T12:37:56.399Z,41.23
2017-03-17T12:39:01.962Z,38.77
2017-03-17T12:40:07.018Z,40.72
2017-03-17T12:41:11.809Z,40.08
2017-03-17T12:42:18.205Z,37.77
2017-03-17T12:43:23.857Z,38.90
2017-03-17T12:44:28.497Z,41.65
2017-03-17T12:45:34.914Z,41.28
2017-03-17T12:46:39.682Z,39.72
2017-03-17T12:47:45.888Z,39.58
2017-03-17T12:48:52.407Z,37.67
2017-03-17T12:49:58.123Z,36.67
2017-03-17T12:51:04.585Z,33.43
2017-03-17T12:52:11.290Z,33.48
2017-03-17T12:53:17.642Z,36.30
2017-03-17T12:54:23.826Z,34.17
2017-03-17T12:55:29.169Z,32.12
2017-03-17T12:56:34.794Z,33.22
2017-03-17T12:57:41.463Z,34.23
2017-03-17T12:58:47.635Z,35.05
2017-03-17T12:59:52.555Z,35.17
2017-03-17T13:00:58.094Z,39.47
2017-03-17T13:02:03.711Z,29.85
2017-03-17T13:03:10.155Z,25.65
2017-03-17T13:04:16.527Z,28.47
2017-03-17T13:05:21.477Z,27.27
2017-03-17T13:06:27.090Z,28.57
2017-03-17T13:07:32.538Z,24.72
2017-03-17T13:08:37.335Z,23.65
2017-03-17T13:09:43.490Z,22.75
2017-03-17T13:10:49.090Z,22.10
2017-03-17T13:11:55.010Z,19.63
2017-03-17T13:13:00.513Z,21.27
2017-03-17T13:14:06.050Z,20.95
2017-03-17T13:15:12.455Z,20.85
2017-03-17T13:16:18.341Z,21.82
2017-03-17T13:17:23.143Z,19.63
2017-03-17T13:18:29.500Z,23.32
2017-03-17T13:19:35.150Z,20.98
2017-03-17T13:20:40.728Z,18.97
2017-03-17T13:21:45.618Z,22.70
2017-03-17T13:22:51.874Z,19.82
2017-03-17T13:23:57.141Z,20.33
2017-03-17T13:25:02.262Z,20.00
2017-03-17T13:26:06.989Z,19.20
2017-03-17T13:27:13.397Z,20.07
2017-03-17T13:28:18.791Z,19.72
2017-03-17T13:29:23.835Z,17.58
2017-03-17T13:30:31.025Z,18.15
2017-03-17T13:31:36.685Z,19.27
2017-03-17T13:32:42.253Z,20.80
2017-03-17T13:33:47.822Z,18.65
2017-03-17T13:34:52.679Z,17.28
2017-03-17T13:35:59.714Z,17.78
2017-03-17T13:37:05.646Z,19.93
2017-03-17T13:38:10.869Z,18.55
2017-03-17T13:39:16.050Z,20.08
2017-03-17T13:40:22.562Z,19.78
2017-03-17T13:41:28.046Z,20.08
2017-03-17T13:42:32.805Z,19.97
2017-03-17T13:43:39.382Z,21.68
2017-03-17T13:44:44.966Z,20.08
2017-03-17T13:45:51.314Z,20.42
2017-03-17T13:46:56.723Z,19.52
2017-03-17T13:48:02.383Z,21.68
2017-03-17T13:49:08.878Z,23.07
2017-03-17T13:50:14.437Z,21.97
2017-03-17T13:51:19.261Z,24.37
2017-03-17T13:52:24.733Z,24.43
2017-03-17T13:53:29.509Z,22.48
2017-03-17T13:54:34.582Z,22.15
2017-03-17T13:55:41.250Z,23.45
2017-03-17T13:56:47.153Z,22.28
2017-03-17T13:57:52.902Z,21.25
2017-03-17T13:58:58.445Z,23.07
2017-03-17T14:00:03.306Z,22.70
2017-03-17T14:01:10.573Z,23.08
2017-03-17T14:02:16.097Z,21.55
2017-03-17T14:03:21.307Z,21.18
2017-03-17T14:04:27.173Z,23.42
2017-03-17T14:05:32.899Z,21.37
2017-03-17T14:06:37.683Z,21.68
2017-03-17T14:07:43.838Z,24.20